createdAt,value
2017-01-14T00:00:50.193Z,993.92
2017-01-14T00:02:00.928Z,993.91
2017-01-14T00:03:11.672Z,993.93
2017-01-14T00:04:22.411Z,993.91
2017-01-14T00:05:32.767Z,993.94
2017-01-14T00:06:43.490Z,993.96
2017-01-14T00:07:53.823Z,993.94
2017-01-14T00:09:04.158Z,993.92
2017-01-14T00:10:14.511Z,993.92
2017-01-14T00:11:24.846Z,993.9
2017-01-14T00:12:35.173Z,993.89
2017-01-14T00:13:45.909Z,993.87
2017-01-14T00:14:56.299Z,993.88
2017-01-14T00:16:07.029Z,993.85
2017-01-14T00:17:17.793Z,993.81
2017-01-14T00:18:28.133Z,993.78
2017-01-14T00:19:38.859Z,993.78
2017-01-14T00:20:48.787Z,993.76
2017-01-14T00:21:59.128Z,993.78
2017-01-14T00:23:09.455Z,993.76
2017-01-14T00:24:19.397Z,993.74
2017-01-14T00:25:29.733Z,993.73
2017-01-14T00:26:40.504Z,993.72
2017-01-14T00:27:51.230Z,993.7
2017-01-14T00:29:01.560Z,993.66
2017-01-14T00:30:12.297Z,993.72
2017-01-14T00:31:23.023Z,993.73
2017-01-14T00:32:33.888Z,993.71
2017-01-14T00:33:44.230Z,993.69
2017-01-14T00:34:54.571Z,993.68
2017-01-14T00:36:05.397Z,993.66
2017-01-14T00:37:15.349Z,993.67
2017-01-14T00:38:25.282Z,993.67
2017-01-14T00:39:35.615Z,993.65
2017-01-14T00:40:46.348Z,993.67
2017-01-14T00:41:57.075Z,993.62
2017-01-14T00:43:07.420Z,993.67
2017-01-14T00:44:18.151Z,993.68
2017-01-14T00:45:28.884Z,993.68
2017-01-14T00:46:38.814Z,993.6
2017-01-14T00:47:49.566Z,993.64
2017-01-14T00:48:59.496Z,993.63
2017-01-14T00:50:09.432Z,993.62
2017-01-14T00:51:19.776Z,993.59
2017-01-14T00:52:30.519Z,993.59
2017-01-14T00:53:40.840Z,993.58
2017-01-14T00:54:51.176Z,993.55
2017-01-14T00:56:01.931Z,993.57
2017-01-14T00:57:12.266Z,993.55
2017-01-14T00:58:22.596Z,993.52
2017-01-14T00:59:32.529Z,993.53
2017-01-14T01:00:43.367Z,993.48
2017-01-14T01:01:54.145Z,993.5
2017-01-14T01:03:04.464Z,993.48
2017-01-14T01:04:14.794Z,993.46
2017-01-14T01:05:25.520Z,993.49
2017-01-14T01:06:35.863Z,993.44
2017-01-14T01:07:46.622Z,993.45
2017-01-14T01:08:56.958Z,993.46
2017-01-14T01:10:07.290Z,993.51
2017-01-14T01:11:18.027Z,993.43
2017-01-14T01:12:28.368Z,993.44
2017-01-14T01:13:39.309Z,993.43
2017-01-14T01:14:50.058Z,993.44
2017-01-14T01:16:00.782Z,993.42
2017-01-14T01:17:10.320Z,993.42
2017-01-14T01:18:21.037Z,993.42
2017-01-14T01:19:31.376Z,993.46
2017-01-14T01:20:41.309Z,993.4
2017-01-14T01:21:51.661Z,993.41
2017-01-14T01:23:01.988Z,993.4
2017-01-14T01:24:12.346Z,993.41
2017-01-14T01:25:23.104Z,993.38
2017-01-14T01:26:33.053Z,993.36
2017-01-14T01:27:43.383Z,993.35
2017-01-14T01:28:54.110Z,993.35
2017-01-14T01:30:04.458Z,993.34
2017-01-14T01:31:14.769Z,993.31
2017-01-14T01:32:25.481Z,993.3
2017-01-14T01:33:35.811Z,993.27
2017-01-14T01:34:46.550Z,993.24
2017-01-14T01:35:57.321Z,993.24
2017-01-14T01:37:07.657Z,993.27
2017-01-14T01:38:18.390Z,993.29
2017-01-14T01:39:29.136Z,993.31
2017-01-14T01:40:39.472Z,993.24
2017-01-14T01:41:49.817Z,993.25
2017-01-14T01:43:00.138Z,993.21
2017-01-14T01:44:10.489Z,993.24
2017-01-14T01:45:20.822Z,993.25
2017-01-14T01:46:31.145Z,993.24
2017-01-14T01:47:41.475Z,993.21
2017-01-14T01:48:51.852Z,993.22
2017-01-14T01:50:02.569Z,993.25
2017-01-14T01:51:12.889Z,993.23
2017-01-14T01:52:22.438Z,993.19
2017-01-14T01:53:32.461Z,993.22
2017-01-14T01:54:42.421Z,993.18
2017-01-14T01:55:52.774Z,993.14
2017-01-14T01:57:02.713Z,993.15
2017-01-14T01:58:12.854Z,993.09
2017-01-14T01:59:22.781Z,993.09
2017-01-14T02:00:33.513Z,993.04
2017-01-14T02:01:44.239Z,993.03
2017-01-14T02:02:55.030Z,992.98
2017-01-14T02:04:05.817Z,992.98
2017-01-14T02:05:16.146Z,992.96
2017-01-14T02:06:26.867Z,992.98
2017-01-14T02:07:37.196Z,992.96
2017-01-14T02:08:47.528Z,992.91
2017-01-14T02:09:57.865Z,992.92
2017-01-14T02:11:08.591Z,992.87
2017-01-14T02:12:18.921Z,992.85
2017-01-14T02:13:29.263Z,992.82
2017-01-14T02:14:39.993Z,992.87
2017-01-14T02:15:49.932Z,992.86
2017-01-14T02:17:00.258Z,992.86
2017-01-14T02:18:10.972Z,992.84
2017-01-14T02:19:21.717Z,992.83
2017-01-14T02:20:31.663Z,992.78
2017-01-14T02:21:41.993Z,992.81
2017-01-14T02:22:52.312Z,992.81
2017-01-14T02:24:03.067Z,992.77
2017-01-14T02:25:12.613Z,992.76
2017-01-14T02:26:23.356Z,992.76
2017-01-14T02:27:33.301Z,992.72
2017-01-14T02:28:44.028Z,992.74
2017-01-14T02:29:54.371Z,992.72
2017-01-14T02:31:05.110Z,992.73
2017-01-14T02:32:15.827Z,992.69
2017-01-14T02:33:26.158Z,992.68
2017-01-14T02:34:36.485Z,992.66
2017-01-14T02:35:47.205Z,992.66
2017-01-14T02:36:57.141Z,992.63
2017-01-14T02:38:07.474Z,992.66
2017-01-14T02:39:18.195Z,992.65
2017-01-14T02:40:28.912Z,992.61
2017-01-14T02:41:38.841Z,992.6
2017-01-14T02:42:49.567Z,992.58
2017-01-14T02:43:59.897Z,992.57
2017-01-14T02:45:10.623Z,992.57
2017-01-14T02:46:21.343Z,992.53
2017-01-14T02:47:31.295Z,992.54
2017-01-14T02:48:41.622Z,992.53
2017-01-14T02:49:52.048Z,992.57
2017-01-14T02:51:01.973Z,992.58
2017-01-14T02:52:12.703Z,992.57
2017-01-14T02:53:23.432Z,992.59
2017-01-14T02:54:33.772Z,992.59
2017-01-14T02:55:44.505Z,992.64
2017-01-14T02:56:54.434Z,992.62
2017-01-14T02:58:04.762Z,992.61
2017-01-14T02:59:15.090Z,992.61
2017-01-14T03:00:25.026Z,992.6
2017-01-14T03:01:35.480Z,992.61
2017-01-14T03:02:45.823Z,992.59
2017-01-14T03:03:56.559Z,992.59
2017-01-14T03:05:07.378Z,992.59
2017-01-14T03:06:18.101Z,992.63
2017-01-14T03:07:28.424Z,992.62
2017-01-14T03:08:38.364Z,992.59
2017-01-14T03:09:48.684Z,992.58
2017-01-14T03:10:58.626Z,992.59
2017-01-14T03:12:08.946Z,992.54
2017-01-14T03:13:19.321Z,992.54
2017-01-14T03:14:29.656Z,992.57
2017-01-14T03:15:39.983Z,992.55
2017-01-14T03:16:50.718Z,992.51
2017-01-14T03:18:01.048Z,992.49
2017-01-14T03:19:11.368Z,992.48
2017-01-14T03:20:22.101Z,992.46
2017-01-14T03:21:32.824Z,992.46
2017-01-14T03:22:43.551Z,992.42
2017-01-14T03:23:53.480Z,992.44
2017-01-14T03:25:03.845Z,992.43
2017-01-14T03:26:14.574Z,992.4
2017-01-14T03:27:25.311Z,992.41
2017-01-14T03:28:35.647Z,992.44
2017-01-14T03:29:46.396Z,992.42
2017-01-14T03:30:57.115Z,992.44
2017-01-14T03:32:07.887Z,992.45
2017-01-14T03:33:18.610Z,992.41
2017-01-14T03:34:29.340Z,992.41
2017-01-14T03:35:38.876Z,992.36
2017-01-14T03:36:49.592Z,992.36
2017-01-14T03:38:00.303Z,992.33
2017-01-14T03:39:10.635Z,992.29
2017-01-14T03:40:21.378Z,992.32
2017-01-14T03:41:31.708Z,992.34
2017-01-14T03:42:42.453Z,992.36
2017-01-14T03:43:53.171Z,992.4
2017-01-14T03:45:03.487Z,992.35
2017-01-14T03:46:14.200Z,992.36
2017-01-14T03:47:23.928Z,992.36
2017-01-14T03:48:34.268Z,992.34
2017-01-14T03:49:44.201Z,992.26
2017-01-14T03:50:54.620Z,992.3
2017-01-14T03:52:04.949Z,992.2
2017-01-14T03:53:15.269Z,992.2
2017-01-14T03:54:25.993Z,992.21
2017-01-14T03:55:36.325Z,992.15
2017-01-14T03:56:46.655Z,992.18
2017-01-14T03:57:57.439Z,992.22
2017-01-14T03:59:08.165Z,992.22
2017-01-14T04:00:18.885Z,992.21
2017-01-14T04:01:28.814Z,992.17
2017-01-14T04:02:39.564Z,992.15
2017-01-14T04:03:50.357Z,992.14
2017-01-14T04:05:00.322Z,992.12
2017-01-14T04:06:10.655Z,992.12
2017-01-14T04:07:21.380Z,992.18
2017-01-14T04:08:31.707Z,992.12
2017-01-14T04:09:42.034Z,992.06
2017-01-14T04:10:52.747Z,992.1
2017-01-14T04:12:03.464Z,992.12
2017-01-14T04:13:13.804Z,992.16
2017-01-14T04:14:24.127Z,992.18
2017-01-14T04:15:34.046Z,992.21
2017-01-14T04:16:44.002Z,992.19
2017-01-14T04:17:54.331Z,992.16
2017-01-14T04:19:05.054Z,992.2
2017-01-14T04:20:14.984Z,992.2
2017-01-14T04:21:25.706Z,992.19
2017-01-14T04:22:36.040Z,992.22
2017-01-14T04:23:46.761Z,992.28
2017-01-14T04:24:56.696Z,992.27
2017-01-14T04:26:07.416Z,992.29
2017-01-14T04:27:17.743Z,992.33
2017-01-14T04:28:27.669Z,992.36
2017-01-14T04:29:37.602Z,992.33
2017-01-14T04:30:48.309Z,992.33
2017-01-14T04:31:59.020Z,992.32
2017-01-14T04:33:09.740Z,992.28
2017-01-14T04:34:20.489Z,992.31
2017-01-14T04:35:31.225Z,992.31
2017-01-14T04:36:41.595Z,992.31
2017-01-14T04:37:51.919Z,992.31
2017-01-14T04:39:02.838Z,992.31
2017-01-14T04:40:13.158Z,992.31
2017-01-14T04:41:23.884Z,992.36
2017-01-14T04:42:34.213Z,992.35
2017-01-14T04:43:44.191Z,992.38
2017-01-14T04:44:54.709Z,992.38
2017-01-14T04:46:05.426Z,992.36
2017-01-14T04:47:15.758Z,992.36
2017-01-14T04:48:26.089Z,992.37
2017-01-14T04:49:35.621Z,992.38
2017-01-14T04:50:46.347Z,992.39
2017-01-14T04:51:56.674Z,992.44
2017-01-14T04:53:07.004Z,992.4
2017-01-14T04:54:17.340Z,992.43
2017-01-14T04:55:26.886Z,992.42
2017-01-14T04:56:37.209Z,992.38
2017-01-14T04:57:47.935Z,992.37
2017-01-14T04:58:58.271Z,992.38
2017-01-14T05:00:08.992Z,992.39
2017-01-14T05:01:19.336Z,992.39
2017-01-14T05:02:29.666Z,992.38
2017-01-14T05:03:40.400Z,992.31
2017-01-14T05:04:50.726Z,992.3
2017-01-14T05:06:01.046Z,992.3
2017-01-14T05:07:11.775Z,992.31
2017-01-14T05:08:22.092Z,992.34
2017-01-14T05:09:32.413Z,992.37
2017-01-14T05:10:42.745Z,992.35
2017-01-14T05:11:53.071Z,992.39
2017-01-14T05:13:03.788Z,992.37
2017-01-14T05:14:14.512Z,992.36
2017-01-14T05:15:25.228Z,992.39
2017-01-14T05:16:35.945Z,992.37
2017-01-14T05:17:46.669Z,992.38
2017-01-14T05:18:56.598Z,992.36
2017-01-14T05:20:06.921Z,992.39
2017-01-14T05:21:17.631Z,992.41
2017-01-14T05:22:28.350Z,992.41
2017-01-14T05:23:39.065Z,992.37
2017-01-14T05:24:49.782Z,992.4
2017-01-14T05:26:00.115Z,992.37
2017-01-14T05:27:10.057Z,992.39
2017-01-14T05:28:20.385Z,992.4
2017-01-14T05:29:31.107Z,992.36
2017-01-14T05:30:41.836Z,992.39
2017-01-14T05:31:52.553Z,992.41
2017-01-14T05:33:02.479Z,992.41
2017-01-14T05:34:12.803Z,992.46
2017-01-14T05:35:23.526Z,992.42
2017-01-14T05:36:33.872Z,992.46
2017-01-14T05:37:44.585Z,992.51
2017-01-14T05:38:55.320Z,992.54
2017-01-14T05:40:05.648Z,992.53
2017-01-14T05:41:15.971Z,992.55
2017-01-14T05:42:26.796Z,992.59
2017-01-14T05:43:36.742Z,992.62
2017-01-14T05:44:47.453Z,992.67
2017-01-14T05:45:57.776Z,992.69
2017-01-14T05:47:08.495Z,992.75
2017-01-14T05:48:18.835Z,992.79
2017-01-14T05:49:29.158Z,992.8
2017-01-14T05:50:39.488Z,992.81
2017-01-14T05:51:49.810Z,992.83
2017-01-14T05:52:59.740Z,992.84
2017-01-14T05:54:10.479Z,992.85
2017-01-14T05:55:21.420Z,992.9
2017-01-14T05:56:31.750Z,992.93
2017-01-14T05:57:42.470Z,992.98
2017-01-14T05:58:52.812Z,993.01
2017-01-14T06:00:02.351Z,993.05
2017-01-14T06:01:13.058Z,993.06
2017-01-14T06:02:23.791Z,993.06
2017-01-14T06:03:34.121Z,993.13
2017-01-14T06:04:44.851Z,993.12
2017-01-14T06:05:54.790Z,993.12
2017-01-14T06:07:05.522Z,993.15
2017-01-14T06:08:16.287Z,993.2
2017-01-14T06:09:27.020Z,993.18
2017-01-14T06:10:37.718Z,993.28
2017-01-14T06:11:48.044Z,993.24
2017-01-14T06:12:58.773Z,993.26
2017-01-14T06:14:09.510Z,993.28
2017-01-14T06:15:20.236Z,993.32
2017-01-14T06:16:30.559Z,993.36
2017-01-14T06:17:41.282Z,993.36
2017-01-14T06:18:52.024Z,993.39
2017-01-14T06:20:02.738Z,993.38
2017-01-14T06:21:13.471Z,993.43
2017-01-14T06:22:23.400Z,993.39
2017-01-14T06:23:34.175Z,993.44
2017-01-14T06:24:44.526Z,993.44
2017-01-14T06:25:54.869Z,993.48
2017-01-14T06:27:05.598Z,993.49
2017-01-14T06:28:15.921Z,993.5
2017-01-14T06:29:26.241Z,993.51
2017-01-14T06:30:36.667Z,993.53
2017-01-14T06:31:46.596Z,993.53
2017-01-14T06:32:57.320Z,993.57
2017-01-14T06:34:08.036Z,993.59
2017-01-14T06:35:18.766Z,993.59
2017-01-14T06:36:29.489Z,993.62
2017-01-14T06:37:40.203Z,993.6
2017-01-14T06:38:50.538Z,993.61
2017-01-14T06:40:00.871Z,993.63
2017-01-14T06:41:11.593Z,993.66
2017-01-14T06:42:22.325Z,993.71
2017-01-14T06:43:32.661Z,993.71
2017-01-14T06:44:42.590Z,993.7
2017-01-14T06:45:52.916Z,993.74
2017-01-14T06:47:03.668Z,993.78
2017-01-14T06:48:13.597Z,993.76
2017-01-14T06:49:23.921Z,993.78
2017-01-14T06:50:34.657Z,993.82
2017-01-14T06:51:45.006Z,993.85
2017-01-14T06:52:55.335Z,993.91
2017-01-14T06:54:06.049Z,993.96
2017-01-14T06:55:16.763Z,993.99
2017-01-14T06:56:27.140Z,994.01
2017-01-14T06:57:37.470Z,994.05
2017-01-14T06:58:46.996Z,994.07
2017-01-14T06:59:57.326Z,994.11
2017-01-14T07:01:07.652Z,994.13
2017-01-14T07:02:17.188Z,994.1
2017-01-14T07:03:27.912Z,994.13
2017-01-14T07:04:38.241Z,994.17
2017-01-14T07:05:48.982Z,994.13
2017-01-14T07:06:59.710Z,994.18
2017-01-14T07:08:10.040Z,994.21
2017-01-14T07:09:20.379Z,994.19
2017-01-14T07:10:30.318Z,994.28
2017-01-14T07:11:40.654Z,994.27
2017-01-14T07:12:51.371Z,994.33
2017-01-14T07:14:01.716Z,994.26
2017-01-14T07:15:12.437Z,994.33
2017-01-14T07:16:22.769Z,994.3
2017-01-14T07:17:33.099Z,994.34
2017-01-14T07:18:43.054Z,994.38
2017-01-14T07:19:53.770Z,994.4
2017-01-14T07:21:04.494Z,994.39
2017-01-14T07:22:15.228Z,994.43
2017-01-14T07:23:25.566Z,994.47
2017-01-14T07:24:36.296Z,994.54
2017-01-14T07:25:47.034Z,994.59
2017-01-14T07:26:57.777Z,994.57
2017-01-14T07:28:08.548Z,994.59
2017-01-14T07:29:18.475Z,994.65
2017-01-14T07:30:29.199Z,994.68
2017-01-14T07:31:39.526Z,994.72
2017-01-14T07:32:50.257Z,994.77
2017-01-14T07:34:00.974Z,994.8
2017-01-14T07:35:11.694Z,994.8
2017-01-14T07:36:21.631Z,994.79
2017-01-14T07:37:32.363Z,994.82
2017-01-14T07:38:41.911Z,994.87
2017-01-14T07:39:52.641Z,994.84
2017-01-14T07:41:02.974Z,994.87
2017-01-14T07:42:13.297Z,994.91
2017-01-14T07:43:24.075Z,994.9
2017-01-14T07:44:34.004Z,994.94
2017-01-14T07:45:44.344Z,994.94
2017-01-14T07:46:54.309Z,994.94
2017-01-14T07:48:04.747Z,994.96
2017-01-14T07:49:15.486Z,995.02
2017-01-14T07:50:25.819Z,995.05
2017-01-14T07:51:36.171Z,995.06
2017-01-14T07:52:46.891Z,995.06
2017-01-14T07:53:57.218Z,995.11
2017-01-14T07:55:07.951Z,995.14
2017-01-14T07:56:18.684Z,995.13
2017-01-14T07:57:29.548Z,995.17
2017-01-14T07:58:40.277Z,995.19
2017-01-14T07:59:50.997Z,995.24
2017-01-14T08:01:01.326Z,995.23
2017-01-14T08:02:11.653Z,995.28
2017-01-14T08:03:22.370Z,995.32
2017-01-14T08:04:32.297Z,995.33
2017-01-14T08:05:43.029Z,995.38
2017-01-14T08:06:53.352Z,995.43
2017-01-14T08:08:03.701Z,995.46
2017-01-14T08:09:14.099Z,995.46
2017-01-14T08:10:24.824Z,995.51
2017-01-14T08:11:35.164Z,995.53
2017-01-14T08:12:45.090Z,995.58
2017-01-14T08:13:55.817Z,995.6
2017-01-14T08:15:06.559Z,995.65
2017-01-14T08:16:17.286Z,995.63
2017-01-14T08:17:27.622Z,995.66
2017-01-14T08:18:38.338Z,995.71
2017-01-14T08:19:48.274Z,995.7
2017-01-14T08:20:58.998Z,995.71
2017-01-14T08:22:08.954Z,995.77
2017-01-14T08:23:19.679Z,995.82
2017-01-14T08:24:30.022Z,995.81
2017-01-14T08:25:40.377Z,995.86
2017-01-14T08:26:51.103Z,995.87
2017-01-14T08:28:01.817Z,995.9
2017-01-14T08:29:12.153Z,995.91
2017-01-14T08:30:22.873Z,995.96
2017-01-14T08:31:33.209Z,995.99
2017-01-14T08:32:43.145Z,996
2017-01-14T08:33:53.898Z,996.04
2017-01-14T08:35:04.611Z,996.03
2017-01-14T08:36:15.337Z,996.03
2017-01-14T08:37:26.064Z,996.02
2017-01-14T08:38:36.812Z,996.03
2017-01-14T08:39:47.142Z,996.1
2017-01-14T08:40:57.866Z,996.08
2017-01-14T08:42:08.201Z,996.11
2017-01-14T08:43:18.918Z,996.1
2017-01-14T08:44:29.642Z,996.15
2017-01-14T08:45:39.984Z,996.23
2017-01-14T08:46:50.298Z,996.2
2017-01-14T08:48:00.679Z,996.26
2017-01-14T08:49:11.398Z,996.27
2017-01-14T08:50:21.737Z,996.31
2017-01-14T08:51:32.096Z,996.3
2017-01-14T08:52:42.420Z,996.33
2017-01-14T08:53:53.155Z,996.36
2017-01-14T08:55:03.892Z,996.38
2017-01-14T08:56:14.253Z,996.43
2017-01-14T08:57:24.980Z,996.45
2017-01-14T08:58:35.348Z,996.5
2017-01-14T08:59:45.667Z,996.49
2017-01-14T09:00:56.420Z,996.53
2017-01-14T09:02:07.165Z,996.58
2017-01-14T09:03:17.101Z,996.58
2017-01-14T09:04:27.127Z,996.59
2017-01-14T09:05:37.855Z,996.61
2017-01-14T09:06:48.211Z,996.67
2017-01-14T09:07:58.975Z,996.71
2017-01-14T09:09:08.909Z,996.7
2017-01-14T09:10:19.268Z,996.74
2017-01-14T09:11:29.203Z,996.78
2017-01-14T09:12:39.526Z,996.8
2017-01-14T09:13:49.845Z,996.84
2017-01-14T09:14:59.785Z,996.85
2017-01-14T09:16:10.111Z,996.92
2017-01-14T09:17:20.834Z,996.89
2017-01-14T09:18:31.160Z,996.96
2017-01-14T09:19:41.493Z,996.97
2017-01-14T09:20:51.431Z,997
2017-01-14T09:22:01.393Z,997.04
2017-01-14T09:23:11.707Z,997.07
2017-01-14T09:24:22.433Z,997.09
2017-01-14T09:25:32.781Z,997.09
2017-01-14T09:26:43.147Z,997.09
2017-01-14T09:27:53.585Z,997.16
2017-01-14T09:29:03.911Z,997.15
2017-01-14T09:30:14.701Z,997.21
2017-01-14T09:31:25.089Z,997.25
2017-01-14T09:32:35.818Z,997.3
2017-01-14T09:33:46.545Z,997.37
2017-01-14T09:34:56.875Z,997.38
2017-01-14T09:36:07.220Z,997.38
2017-01-14T09:37:17.975Z,997.37
2017-01-14T09:38:28.708Z,997.36
2017-01-14T09:39:39.463Z,997.4
2017-01-14T09:40:49.390Z,997.41
2017-01-14T09:41:59.712Z,997.47
2017-01-14T09:43:10.042Z,997.53
2017-01-14T09:44:20.760Z,997.52
2017-01-14T09:45:31.496Z,997.6
2017-01-14T09:46:41.818Z,997.61
2017-01-14T09:47:52.544Z,997.64
2017-01-14T09:49:03.261Z,997.67
2017-01-14T09:50:13.181Z,997.67
2017-01-14T09:51:23.908Z,997.67
2017-01-14T09:52:34.230Z,997.68
2017-01-14T09:53:44.164Z,997.7
2017-01-14T09:54:53.697Z,997.71
2017-01-14T09:56:04.039Z,997.75
2017-01-14T09:57:13.963Z,997.75
2017-01-14T09:58:24.695Z,997.74
2017-01-14T09:59:35.031Z,997.73
2017-01-14T10:00:45.367Z,997.76
2017-01-14T10:01:55.713Z,997.8
2017-01-14T10:03:06.039Z,997.77
2017-01-14T10:04:16.369Z,997.76
2017-01-14T10:05:26.714Z,997.79
2017-01-14T10:06:37.456Z,997.8
2017-01-14T10:07:47.804Z,997.8
2017-01-14T10:08:58.526Z,997.81
2017-01-14T10:10:09.269Z,997.81
2017-01-14T10:11:19.595Z,997.86
2017-01-14T10:12:29.921Z,997.89
2017-01-14T10:13:40.671Z,997.93
2017-01-14T10:14:51.400Z,997.94
2017-01-14T10:16:02.133Z,997.96
2017-01-14T10:17:12.936Z,997.99
2017-01-14T10:18:23.268Z,997.99
2017-01-14T10:19:33.624Z,998.01
2017-01-14T10:20:43.976Z,998.02
2017-01-14T10:21:54.747Z,998.05
2017-01-14T10:23:05.467Z,998.1
2017-01-14T10:24:15.800Z,998.12
2017-01-14T10:25:26.136Z,998.16
2017-01-14T10:26:36.860Z,998.18
2017-01-14T10:27:47.624Z,998.21
2017-01-14T10:28:57.964Z,998.24
2017-01-14T10:30:08.296Z,998.25
2017-01-14T10:31:19.035Z,998.3
2017-01-14T10:32:29.365Z,998.28
2017-01-14T10:33:40.105Z,998.33
2017-01-14T10:34:50.453Z,998.35
2017-01-14T10:36:00.840Z,998.34
2017-01-14T10:37:11.242Z,998.37
2017-01-14T10:38:21.180Z,998.34
2017-01-14T10:39:31.139Z,998.3
2017-01-14T10:40:41.487Z,998.28
2017-01-14T10:41:52.373Z,998.24
2017-01-14T10:43:02.726Z,998.3
2017-01-14T10:44:13.474Z,998.31
2017-01-14T10:45:23.798Z,998.37
2017-01-14T10:46:33.734Z,998.41
2017-01-14T10:47:44.463Z,998.4
2017-01-14T10:48:55.216Z,998.41
2017-01-14T10:50:05.943Z,998.41
2017-01-14T10:51:16.680Z,998.34
2017-01-14T10:52:27.021Z,998.41
2017-01-14T10:53:37.350Z,998.4
2017-01-14T10:54:48.089Z,998.41
2017-01-14T10:55:58.029Z,998.4
2017-01-14T10:57:08.770Z,998.45
2017-01-14T10:58:19.498Z,998.44
2017-01-14T10:59:30.208Z,998.51
2017-01-14T11:00:40.935Z,998.53
2017-01-14T11:01:50.867Z,998.58
2017-01-14T11:03:01.610Z,998.55
2017-01-14T11:04:12.335Z,998.51
2017-01-14T11:05:22.663Z,998.53
2017-01-14T11:06:32.208Z,998.5
2017-01-14T11:07:42.541Z,998.56
2017-01-14T11:08:52.473Z,998.56
2017-01-14T11:10:02.810Z,998.56
2017-01-14T11:11:13.153Z,998.59
2017-01-14T11:12:23.882Z,998.6
2017-01-14T11:13:34.621Z,998.62
2017-01-14T11:14:45.348Z,998.58
2017-01-14T11:15:55.315Z,998.59
2017-01-14T11:17:06.052Z,998.62
2017-01-14T11:18:16.767Z,998.66
2017-01-14T11:19:27.126Z,998.65
2017-01-14T11:20:37.107Z,998.66
2017-01-14T11:21:47.837Z,998.67
2017-01-14T11:22:58.585Z,998.66
2017-01-14T11:24:09.324Z,998.67
2017-01-14T11:25:19.657Z,998.72
2017-01-14T11:26:30.406Z,998.74
2017-01-14T11:27:41.152Z,998.76
2017-01-14T11:28:51.891Z,998.79
2017-01-14T11:30:02.612Z,998.81
2017-01-14T11:31:12.950Z,998.8
2017-01-14T11:32:22.906Z,998.89
2017-01-14T11:33:33.290Z,998.87
2017-01-14T11:34:44.025Z,998.84
2017-01-14T11:35:54.787Z,998.87
2017-01-14T11:37:05.546Z,998.91
2017-01-14T11:38:16.275Z,998.94
2017-01-14T11:39:26.675Z,998.92
2017-01-14T11:40:37.021Z,998.91
2017-01-14T11:41:47.754Z,998.95
2017-01-14T11:42:58.094Z,998.89
2017-01-14T11:44:08.829Z,998.9
2017-01-14T11:45:19.572Z,998.91
2017-01-14T11:46:30.317Z,998.94
2017-01-14T11:47:40.662Z,998.9
2017-01-14T11:48:51.009Z,998.93
2017-01-14T11:50:01.741Z,998.91
2017-01-14T11:51:12.464Z,998.94
2017-01-14T11:52:22.807Z,998.95
2017-01-14T11:53:32.752Z,998.98
2017-01-14T11:54:43.082Z,998.99
2017-01-14T11:55:53.831Z,999
2017-01-14T11:57:04.573Z,998.97
2017-01-14T11:58:15.299Z,998.99
2017-01-14T11:59:25.657Z,998.98
2017-01-14T12:00:34.829Z,998.98
2017-01-14T12:01:45.184Z,998.99
2017-01-14T12:02:55.556Z,999
2017-01-14T12:04:06.282Z,999.01
2017-01-14T12:05:17.063Z,999.01
2017-01-14T12:06:27.411Z,999.01
2017-01-14T12:07:37.383Z,999.02
2017-01-14T12:08:47.731Z,999.02
2017-01-14T12:09:57.277Z,999.01
2017-01-14T12:11:08.029Z,998.99
2017-01-14T12:12:18.375Z,998.98
2017-01-14T12:13:28.784Z,999
2017-01-14T12:14:39.140Z,999
2017-01-14T12:15:49.514Z,999.01
2017-01-14T12:17:00.256Z,999.04
2017-01-14T12:18:10.202Z,999.08
2017-01-14T12:19:20.925Z,999.12
2017-01-14T12:20:31.278Z,999.12
2017-01-14T12:21:41.237Z,999.15
2017-01-14T12:22:51.977Z,999.16
2017-01-14T12:24:02.704Z,999.15
2017-01-14T12:25:13.418Z,999.17
2017-01-14T12:26:23.767Z,999.14
2017-01-14T12:27:34.106Z,999.17
2017-01-14T12:28:44.828Z,999.15
2017-01-14T12:29:55.178Z,999.2
2017-01-14T12:31:05.907Z,999.22
2017-01-14T12:32:16.235Z,999.21
2017-01-14T12:33:26.176Z,999.24
2017-01-14T12:34:36.659Z,999.18
2017-01-14T12:35:46.989Z,999.21
2017-01-14T12:36:57.377Z,999.23
2017-01-14T12:38:08.119Z,999.2
2017-01-14T12:39:18.871Z,999.22
2017-01-14T12:40:29.211Z,999.17
2017-01-14T12:41:39.533Z,999.22
2017-01-14T12:42:49.469Z,999.2
2017-01-14T12:43:59.825Z,999.28
2017-01-14T12:45:10.547Z,999.28
2017-01-14T12:46:21.284Z,999.31
2017-01-14T12:47:32.037Z,999.25
2017-01-14T12:48:42.772Z,999.31
2017-01-14T12:49:53.149Z,999.29
2017-01-14T12:51:03.472Z,999.37
2017-01-14T12:52:13.798Z,999.33
2017-01-14T12:53:23.709Z,999.34
2017-01-14T12:54:34.044Z,999.38
2017-01-14T12:55:43.571Z,999.39
2017-01-14T12:56:53.079Z,999.38
2017-01-14T12:58:03.008Z,999.45
2017-01-14T12:59:12.536Z,999.42
2017-01-14T13:00:22.452Z,999.46
2017-01-14T13:01:31.971Z,999.47
2017-01-14T13:02:42.673Z,999.45
2017-01-14T13:03:52.580Z,999.45
2017-01-14T13:05:02.892Z,999.43
2017-01-14T13:06:13.590Z,999.45
2017-01-14T13:07:24.292Z,999.43
2017-01-14T13:08:34.600Z,999.49
2017-01-14T13:09:44.897Z,999.46
2017-01-14T13:10:54.410Z,999.42
2017-01-14T13:12:04.707Z,999.51
2017-01-14T13:13:15.011Z,999.5
2017-01-14T13:14:24.921Z,999.51
2017-01-14T13:15:35.233Z,999.48
2017-01-14T13:16:45.140Z,999.48
2017-01-14T13:17:55.048Z,999.51
2017-01-14T13:19:04.959Z,999.49
2017-01-14T13:20:15.115Z,999.52
2017-01-14T13:21:25.016Z,999.49
2017-01-14T13:22:34.944Z,999.53
2017-01-14T13:23:45.645Z,999.56
2017-01-14T13:24:55.549Z,999.53
2017-01-14T13:26:06.248Z,999.56
2017-01-14T13:27:16.568Z,999.56
2017-01-14T13:28:26.082Z,999.54
2017-01-14T13:29:36.390Z,999.6
2017-01-14T13:30:46.295Z,999.64
2017-01-14T13:31:56.624Z,999.67
2017-01-14T13:33:06.525Z,999.66
2017-01-14T13:34:16.458Z,999.69
2017-01-14T13:35:26.768Z,999.69
2017-01-14T13:36:36.674Z,999.68
2017-01-14T13:37:46.597Z,999.69
2017-01-14T13:38:56.105Z,999.66
2017-01-14T13:40:06.008Z,999.65
2017-01-14T13:41:15.912Z,999.69
2017-01-14T13:42:26.218Z,999.7
2017-01-14T13:43:36.920Z,999.72
2017-01-14T13:44:46.851Z,999.74
2017-01-14T13:45:56.767Z,999.76
2017-01-14T13:47:06.319Z,999.71
2017-01-14T13:48:16.628Z,999.73
2017-01-14T13:49:26.929Z,999.73
2017-01-14T13:50:37.631Z,999.79
2017-01-14T13:51:48.342Z,999.75
2017-01-14T13:52:57.847Z,999.78
2017-01-14T13:54:08.546Z,999.8
2017-01-14T13:55:18.832Z,999.79
2017-01-14T13:56:28.744Z,999.79
2017-01-14T13:57:38.658Z,999.84
2017-01-14T13:58:48.994Z,999.81
2017-01-14T13:59:59.299Z,999.86
2017-01-14T14:01:08.814Z,999.87
2017-01-14T14:02:19.510Z,999.88
2017-01-14T14:03:29.423Z,999.88
2017-01-14T14:04:39.347Z,999.92
2017-01-14T14:05:49.648Z,999.91
2017-01-14T14:07:00.351Z,999.92
2017-01-14T14:08:10.254Z,999.91
2017-01-14T14:09:20.947Z,999.97
2017-01-14T14:10:31.253Z,999.95
2017-01-14T14:11:42.074Z,999.95
2017-01-14T14:12:52.793Z,999.97
2017-01-14T14:14:03.096Z,1000
2017-01-14T14:15:13.008Z,1000.02
2017-01-14T14:16:22.918Z,1000
2017-01-14T14:17:33.619Z,1000.11
2017-01-14T14:18:43.523Z,1000.07
2017-01-14T14:19:54.218Z,1000.08
2017-01-14T14:21:03.758Z,1000.11
2017-01-14T14:22:14.454Z,1000.1
2017-01-14T14:23:24.355Z,1000.13
2017-01-14T14:24:34.278Z,1000.08
2017-01-14T14:25:44.996Z,1000.1
2017-01-14T14:26:54.911Z,1000.16
2017-01-14T14:28:04.040Z,1000.19
2017-01-14T14:29:14.745Z,1000.12
2017-01-14T14:30:25.436Z,1000.12
2017-01-14T14:31:35.747Z,1000.16
2017-01-14T14:32:46.048Z,1000.16
2017-01-14T14:33:55.557Z,1000.17
2017-01-14T14:35:05.849Z,1000.2
2017-01-14T14:36:15.362Z,1000.2
2017-01-14T14:37:25.664Z,1000.18
2017-01-14T14:38:35.964Z,1000.22
2017-01-14T14:39:45.864Z,1000.21
2017-01-14T14:40:56.579Z,1000.21